Time;durP1;ratioP1;P1;durP2;ratioP2;P2;SDS_P1;SDS_P2;PMS_P1;PMS_P2;Temp;Humidity;BMP_temperature;BMP_pressure;BME280_temperature;BME280_humidity;BME280_pressure;Samples;Min_cycle;Max_cycle;Signal;HPM_P1;HPM_P2
2023/03/02 00:01:51;;;;;;;24.92;18.10;;;2.50;99.90;;;;;;5028793;28;20725;-65
2023/03/02 00:04:27;;;;;;;23.13;16.27;;;2.50;99.90;;;;;;5025347;28;20185;-65
2023/03/02 00:06:56;;;;;;;23.65;16.13;;;2.80;99.90;;;;;;5028982;28;20602;-65
2023/03/02 00:09:22;;;;;;;27.10;17.35;;;2.70;99.90;;;;;;5024657;28;20623;-65
2023/03/02 00:11:49;;;;;;;21.73;17.03;;;2.80;99.90;;;;;;5028390;28;20244;-65
2023/03/02 00:14:14;;;;;;;26.40;17.35;;;2.60;99.90;;;;;;5026816;28;20465;-65
2023/03/02 00:16:40;;;;;;;21.93;17.40;;;3.20;99.90;;;;;;5027605;28;20198;-65
2023/03/02 00:19:06;;;;;;;27.00;17.40;;;2.80;99.90;;;;;;5028684;28;20211;-65
2023/03/02 00:21:31;;;;;;;23.17;16.77;;;2.60;99.90;;;;;;5028901;28;20524;-65
2023/03/02 00:23:57;;;;;;;24.50;16.27;;;2.60;99.90;;;;;;5026467;28;20269;-65
2023/03/02 00:26:23;;;;;;;21.20;17.00;;;2.00;99.90;;;;;;5028413;28;20190;-65
2023/03/02 00:28:48;;;;;;;26.90;17.30;;;2.60;99.90;;;;;;5029407;28;20305;-64
2023/03/02 00:31:15;;;;;;;21.63;17.50;;;2.60;99.90;;;;;;5028192;28;20225;-65
2023/03/02 00:33:40;;;;;;;28.08;18.67;;;2.90;99.90;;;;;;5026869;28;20233;-65
2023/03/02 00:36:14;;;;;;;25.27;17.17;;;3.10;99.90;;;;;;5027264;28;20165;-64
2023/03/02 00:38:39;;;;;;;23.52;17.05;;;2.40;99.90;;;;;;5024859;28;20862;-64
2023/03/02 00:41:05;;;;;;;23.03;16.57;;;2.90;99.90;;;;;;5028821;28;20187;-64
2023/03/02 00:43:31;;;;;;;24.73;16.47;;;3.00;99.90;;;;;;5027883;28;20818;-65
2023/03/02 00:45:57;;;;;;;23.50;16.67;;;2.60;99.90;;;;;;5026417;28;20482;-64
2023/03/02 00:48:23;;;;;;;24.73;18.30;;;2.40;99.90;;;;;;5025094;28;20222;-64
2023/03/02 00:50:49;;;;;;;23.63;17.13;;;2.60;99.90;;;;;;5025895;28;20655;-64
2023/03/02 00:53:14;;;;;;;27.13;17.20;;;3.10;99.90;;;;;;5027124;28;20186;-64
2023/03/02 00:55:40;;;;;;;22.67;15.90;;;1.60;99.90;;;;;;5027612;28;20227;-64
2023/03/02 00:58:05;;;;;;;22.90;15.97;;;2.60;99.90;;;;;;5028147;28;20746;-64
2023/03/02 01:00:33;;;;;;;24.83;16.00;;;2.60;99.90;;;;;;5028785;28;20183;-64
2023/03/02 01:02:58;;;;;;;25.92;15.98;;;2.70;99.90;;;;;;5027095;28;20190;-64
2023/03/02 01:05:24;;;;;;;24.53;15.83;;;2.60;99.90;;;;;;5027498;28;20542;-64
2023/03/02 01:07:49;;;;;;;24.57;16.87;;;2.80;99.90;;;;;;5028349;28;20248;-64
2023/03/02 01:10:15;;;;;;;24.27;16.30;;;2.80;99.90;;;;;;5022928;28;20182;-64
2023/03/02 01:12:41;;;;;;;24.77;16.40;;;2.70;99.90;;;;;;5027037;28;20198;-64
2023/03/02 01:15:08;;;;;;;26.17;16.30;;;2.80;99.90;;;;;;5027976;28;20214;-63
2023/03/02 01:17:34;;;;;;;25.95;17.25;;;2.80;99.90;;;;;;5026565;28;20237;-64
2023/03/02 01:20:00;;;;;;;24.90;17.13;;;2.90;99.90;;;;;;5024238;28;20278;-64
2023/03/02 01:22:26;;;;;;;21.17;16.33;;;2.70;99.90;;;;;;5024652;28;20270;-63
2023/03/02 01:24:52;;;;;;;25.13;17.17;;;2.90;99.90;;;;;;5025075;28;20227;-64
2023/03/02 01:27:18;;;;;;;23.45;17.60;;;2.60;99.90;;;;;;5028275;28;20445;-64
2023/03/02 01:29:44;;;;;;;23.27;16.50;;;2.00;99.90;;;;;;5030513;28;20655;-66
2023/03/02 01:32:10;;;;;;;26.60;17.80;;;2.70;99.90;;;;;;5023010;28;20221;-63
2023/03/02 01:34:36;;;;;;;23.83;17.67;;;2.60;99.90;;;;;;5026924;28;20210;-65
2023/03/02 01:37:01;;;;;;;23.23;16.87;;;2.60;99.90;;;;;;5024457;28;20496;-63
2023/03/02 01:39:27;;;;;;;22.77;17.30;;;2.50;99.90;;;;;;5025939;28;21634;-64
2023/03/02 01:41:53;;;;;;;21.83;15.90;;;2.60;99.90;;;;;;5026990;28;20226;-65
2023/03/02 01:44:39;;;;;;;31.30;18.07;;;2.80;99.90;;;;;;5029014;28;20190;-65
2023/03/02 01:47:13;;;;;;;26.73;16.90;;;2.50;99.90;;;;;;5022032;28;20231;-66
2023/03/02 01:49:43;;;;;;;24.13;17.48;;;2.70;99.90;;;;;;5025705;28;20287;-65
2023/03/02 01:52:11;;;;;;;24.33;18.80;;;2.90;99.90;;;;;;5027881;28;20229;-64
2023/03/02 01:54:37;;;;;;;26.35;17.23;;;2.20;99.90;;;;;;5023970;28;20567;-64
2023/03/02 01:57:05;;;;;;;23.25;17.25;;;3.20;99.90;;;;;;5028311;28;20660;-65
2023/03/02 01:59:34;;;;;;;24.38;17.38;;;2.80;99.90;;;;;;5028558;28;20234;-64
2023/03/02 02:02:03;;;;;;;24.13;16.90;;;2.30;99.90;;;;;;5028912;28;20185;-65
2023/03/02 02:04:30;;;;;;;26.40;18.38;;;3.20;99.90;;;;;;5024418;28;20668;-65
2023/03/02 02:07:01;;;;;;;25.40;17.73;;;2.70;99.90;;;;;;5030816;28;20237;-65
2023/03/02 02:09:32;;;;;;;28.67;18.00;;;2.80;99.90;;;;;;5028904;28;20198;-65
2023/03/02 02:11:58;;;;;;;28.90;17.83;;;2.90;99.90;;;;;;5030508;28;20215;-65
2023/03/02 02:14:23;;;;;;;27.77;17.80;;;2.80;99.90;;;;;;5030476;28;20214;-65
2023/03/02 02:16:50;;;;;;;25.60;17.50;;;2.80;99.90;;;;;;5030146;28;20222;-64
2023/03/02 02:19:34;;;;;;;27.08;18.95;;;2.80;99.90;;;;;;5028079;28;20469;-65
2023/03/02 02:22:00;;;;;;;28.50;17.48;;;2.70;99.90;;;;;;5030163;28;20194;-64
2023/03/02 02:24:42;;;;;;;23.25;16.25;;;2.70;99.90;;;;;;5028875;28;20335;-64
2023/03/02 02:27:08;;;;;;;25.92;17.05;;;2.80;99.90;;;;;;5030569;28;20272;-65
2023/03/02 02:29:44;;;;;;;27.33;18.25;;;2.60;99.90;;;;;;5023544;28;20678;-66
2023/03/02 02:32:20;;;;;;;25.65;17.67;;;2.80;99.90;;;;;;5027636;28;20201;-65
2023/03/02 02:35:00;;;;;;;25.13;17.35;;;2.60;99.90;;;;;;5030238;28;20312;-65
2023/03/02 02:37:34;;;;;;;21.58;16.30;;;2.50;99.90;;;;;;5029638;28;20178;-65
2023/03/02 02:40:06;;;;;;;24.98;17.30;;;2.50;99.90;;;;;;5029210;28;20214;-64
2023/03/02 02:42:36;;;;;;;22.20;16.15;;;2.50;99.90;;;;;;5029809;28;20222;-64
2023/03/02 02:45:16;;;;;;;27.55;17.30;;;2.40;99.90;;;;;;5030512;28;20186;-64
2023/03/02 02:47:42;;;;;;;25.17;18.30;;;2.40;99.90;;;;;;5028906;28;20221;-65
2023/03/02 02:50:16;;;;;;;23.02;16.65;;;2.80;99.90;;;;;;5029439;28;20285;-65
2023/03/02 02:52:43;;;;;;;23.92;17.15;;;2.50;99.90;;;;;;5028793;28;20702;-65
2023/03/02 02:55:14;;;;;;;23.33;17.58;;;2.40;99.90;;;;;;5032009;28;20214;-65
2023/03/02 02:57:40;;;;;;;26.88;17.77;;;2.30;99.90;;;;;;5025737;28;20186;-65
2023/03/02 03:00:13;;;;;;;25.47;17.70;;;2.20;99.90;;;;;;5023589;28;20561;-65
2023/03/02 03:02:44;;;;;;;25.77;16.73;;;2.30;99.90;;;;;;5033160;28;20195;-65
2023/03/02 03:05:14;;;;;;;24.55;17.27;;;2.40;99.90;;;;;;5031608;28;20800;-65
2023/03/02 03:07:39;;;;;;;23.95;17.15;;;2.30;99.90;;;;;;5028847;28;20187;-65
2023/03/02 03:10:18;;;;;;;23.83;17.50;;;2.40;99.90;;;;;;5026293;28;20193;-65
2023/03/02 03:12:45;;;;;;;28.90;18.98;;;2.10;99.90;;;;;;5030257;28;20232;-65
2023/03/02 03:15:11;;;;;;;25.58;18.20;;;2.30;99.90;;;;;;5028565;28;20214;-65
2023/03/02 03:17:37;;;;;;;20.88;16.67;;;;;;;;;;5026174;28;20554;-65
2023/03/02 03:20:10;;;;;;;24.77;17.30;;;2.20;99.90;;;;;;5027571;28;20232;-65
2023/03/02 03:22:36;;;;;;;23.88;17.40;;;2.20;99.90;;;;;;5028320;28;20182;-65
2023/03/02 03:25:02;;;;;;;23.30;17.60;;;1.50;99.90;;;;;;5029678;28;20197;-65
2023/03/02 03:27:28;;;;;;;31.20;18.95;;;2.20;99.90;;;;;;5029224;28;20565;-65
2023/03/02 03:29:54;;;;;;;30.50;18.57;;;2.20;99.90;;;;;;5028602;28;20213;-65
2023/03/02 03:32:20;;;;;;;26.17;19.03;;;2.70;99.90;;;;;;5027040;28;20198;-65
2023/03/02 03:34:46;;;;;;;25.92;18.63;;;2.30;99.90;;;;;;5029436;28;20213;-65
2023/03/02 03:37:15;;;;;;;25.85;17.63;;;1.70;99.90;;;;;;5027872;28;20190;-65
2023/03/02 03:39:41;;;;;;;27.92;18.60;;;2.10;99.90;;;;;;5026712;28;20248;-65
2023/03/02 03:42:08;;;;;;;24.80;18.10;;;2.00;99.90;;;;;;5030076;28;20182;-65
2023/03/02 03:44:33;;;;;;;22.92;18.33;;;2.10;99.90;;;;;;5029342;28;20452;-65
2023/03/02 03:46:59;;;;;;;30.23;20.73;;;1.70;99.90;;;;;;5026170;28;20190;-65
2023/03/02 03:49:26;;;;;;;26.70;18.23;;;2.70;99.90;;;;;;5027141;28;20214;-65
2023/03/02 03:51:52;;;;;;;25.90;17.67;;;2.60;99.90;;;;;;5029271;28;20198;-65
2023/03/02 03:54:17;;;;;;;27.23;18.98;;;2.10;99.90;;;;;;5026231;28;20289;-65
2023/03/02 03:56:46;;;;;;;33.40;19.47;;;2.30;99.90;;;;;;5028947;28;20695;-65
2023/03/02 03:59:14;;;;;;;25.50;18.00;;;2.20;99.90;;;;;;5028782;28;20259;-65
2023/03/02 04:01:46;;;;;;;28.15;18.70;;;2.20;99.90;;;;;;5022647;28;21271;-65
2023/03/02 04:04:16;;;;;;;26.85;18.80;;;2.00;99.90;;;;;;5030241;28;20582;-65
2023/03/02 04:06:42;;;;;;;30.50;18.65;;;2.20;99.90;;;;;;5028362;28;20191;-65
2023/03/02 04:09:08;;;;;;;26.63;18.85;;;1.80;99.90;;;;;;5027945;28;20672;-65
2023/03/02 04:11:37;;;;;;;27.13;18.50;;;1.40;99.90;;;;;;5027078;28;20205;-65
2023/03/02 04:14:04;;;;;;;26.60;18.30;;;2.30;99.90;;;;;;5028773;28;20448;-65
2023/03/02 04:16:30;;;;;;;30.35;19.30;;;1.40;99.90;;;;;;5028575;28;20237;-65
2023/03/02 04:18:57;;;;;;;29.38;20.20;;;2.00;99.90;;;;;;5028806;28;20248;-65
2023/03/02 04:21:22;;;;;;;26.15;18.90;;;2.20;99.90;;;;;;5028378;28;20201;-65
2023/03/02 04:23:48;;;;;;;29.47;19.33;;;2.00;99.90;;;;;;5027646;28;20175;-65
2023/03/02 04:26:14;;;;;;;28.03;19.73;;;2.10;99.90;;;;;;5028326;28;20201;-65
2023/03/02 04:28:39;;;;;;;26.03;18.43;;;2.30;99.90;;;;;;5027738;28;20984;-65
2023/03/02 04:31:05;;;;;;;30.30;20.63;;;2.40;99.90;;;;;;5025281;28;20472;-65
2023/03/02 04:33:31;;;;;;;24.60;18.53;;;1.50;99.90;;;;;;5028476;28;20183;-65
2023/03/02 04:35:57;;;;;;;29.23;19.13;;;2.10;99.90;;;;;;5028318;28;20399;-65
2023/03/02 04:38:23;;;;;;;32.40;19.63;;;2.20;99.90;;;;;;5024943;28;20757;-65
2023/03/02 04:40:48;;;;;;;27.55;17.70;;;2.20;99.90;;;;;;5028616;28;20455;-65
2023/03/02 04:43:14;;;;;;;32.37;20.97;;;2.10;99.90;;;;;;5029156;28;20281;-65
2023/03/02 04:45:40;;;;;;;26.42;18.40;;;2.20;99.90;;;;;;5026212;28;20227;-65
2023/03/02 04:48:06;;;;;;;26.20;18.43;;;1.40;99.90;;;;;;5028489;28;20226;-65
2023/03/02 04:50:32;;;;;;;28.77;19.20;;;2.20;99.90;;;;;;5028750;28;20202;-65
2023/03/02 04:52:58;;;;;;;24.50;18.98;;;2.00;99.90;;;;;;5025018;28;20535;-65
2023/03/02 04:55:26;;;;;;;30.50;19.60;;;1.60;99.90;;;;;;5024292;28;20235;-65
2023/03/02 04:57:51;;;;;;;34.95;19.42;;;2.10;99.90;;;;;;5028702;28;20221;-65
2023/03/02 05:00:19;;;;;;;28.70;19.40;;;2.00;99.90;;;;;;5028689;28;20204;-65
2023/03/02 05:02:46;;;;;;;28.58;18.83;;;1.70;99.90;;;;;;5027873;28;20186;-65
2023/03/02 05:05:19;;;;;;;30.05;18.88;;;2.00;99.90;;;;;;5025168;28;20186;-65
2023/03/02 05:07:45;;;;;;;26.02;18.42;;;2.20;99.90;;;;;;5027993;28;20193;-66
2023/03/02 05:10:12;;;;;;;26.70;17.67;;;2.20;99.90;;;;;;5023767;28;20583;-65
2023/03/02 05:12:56;;;;;;;30.23;19.80;;;2.30;99.90;;;;;;5025717;28;20865;-65
2023/03/02 05:15:35;;;;;;;27.90;17.60;;;2.30;99.90;;;;;;5024403;28;20245;-65
2023/03/02 05:18:01;;;;;;;25.67;18.15;;;2.50;99.90;;;;;;5023565;28;20299;-66
2023/03/02 05:20:29;;;;;;;29.93;20.23;;;2.40;99.90;;;;;;5024680;28;20281;-66
2023/03/02 05:22:57;;;;;;;28.92;19.77;;;2.60;99.90;;;;;;5027203;28;20738;-65
2023/03/02 05:25:24;;;;;;;29.45;18.52;;;1.90;99.90;;;;;;5024471;28;20568;-65
2023/03/02 05:27:49;;;;;;;23.30;16.42;;;2.60;99.90;;;;;;5025667;28;20277;-65
2023/03/02 05:30:16;;;;;;;28.23;18.20;;;2.60;99.90;;;;;;5027649;28;20274;-65
2023/03/02 05:32:41;;;;;;;24.27;16.60;;;2.70;99.90;;;;;;5024356;28;20654;-65
2023/03/02 05:35:08;;;;;;;26.47;18.27;;;2.80;99.90;;;;;;5031754;28;20271;-65
2023/03/02 05:37:34;;;;;;;23.60;17.33;;;2.80;99.90;;;;;;5027899;28;20183;-64
2023/03/02 05:39:59;;;;;;;28.20;20.23;;;2.70;99.90;;;;;;5024897;28;20579;-65
2023/03/02 05:42:25;;;;;;;26.87;19.00;;;2.50;99.90;;;;;;5029599;28;20461;-64
2023/03/02 05:44:50;;;;;;;27.13;18.30;;;2.90;99.90;;;;;;5029316;28;20218;-65
2023/03/02 05:47:16;;;;;;;24.47;16.73;;;2.70;99.90;;;;;;5027326;28;20530;-65
2023/03/02 05:49:42;;;;;;;26.77;17.27;;;2.90;99.90;;;;;;5030142;28;20260;-65
2023/03/02 05:52:07;;;;;;;24.60;18.03;;;2.80;99.90;;;;;;5028793;28;20301;-65
2023/03/02 05:54:33;;;;;;;25.60;17.50;;;3.00;99.90;;;;;;5025624;28;20230;-65
2023/03/02 05:56:59;;;;;;;26.40;18.53;;;2.80;99.90;;;;;;5029474;28;20183;-64
2023/03/02 05:59:24;;;;;;;25.90;18.47;;;3.10;99.90;;;;;;5029017;28;20231;-65
2023/03/02 06:01:53;;;;;;;25.77;17.97;;;3.20;99.90;;;;;;5028051;28;20450;-65
2023/03/02 06:04:19;;;;;;;29.00;19.42;;;3.10;99.90;;;;;;5022879;28;20181;-65
2023/03/02 06:06:44;;;;;;;25.17;16.90;;;3.20;99.90;;;;;;5027332;28;20696;-65
2023/03/02 06:09:10;;;;;;;29.03;19.80;;;3.40;99.90;;;;;;5024320;28;20222;-65
2023/03/02 06:11:36;;;;;;;24.77;17.00;;;3.50;99.90;;;;;;5029222;28;20554;-65
2023/03/02 06:14:01;;;;;;;28.83;17.43;;;3.10;99.90;;;;;;5028907;28;20190;-69
2023/03/02 06:16:27;;;;;;;25.87;17.07;;;3.20;99.90;;;;;;5030361;28;20184;-66
2023/03/02 06:18:52;;;;;;;25.53;18.07;;;3.70;99.90;;;;;;5029604;28;20282;-66
2023/03/02 06:21:18;;;;;;;27.43;20.07;;;3.20;99.90;;;;;;5029787;28;20223;-66
2023/03/02 06:23:44;;;;;;;24.63;19.20;;;3.20;99.90;;;;;;5026187;28;20179;-67
2023/03/02 06:26:11;;;;;;;26.60;17.53;;;3.40;99.90;;;;;;5029441;28;20207;-67
2023/03/02 06:28:37;;;;;;;28.92;18.40;;;3.50;99.90;;;;;;5027951;28;20551;-66
2023/03/02 06:31:03;;;;;;;22.67;17.45;;;3.50;99.90;;;;;;5026300;28;20187;-66
2023/03/02 06:33:29;;;;;;;26.25;18.23;;;3.40;99.90;;;;;;5027612;28;20548;-67
2023/03/02 06:35:55;;;;;;;28.20;18.80;;;3.60;99.90;;;;;;5026737;28;20213;-66
2023/03/02 06:38:21;;;;;;;27.05;17.92;;;3.30;99.90;;;;;;5026090;28;20531;-66
2023/03/02 06:40:47;;;;;;;22.70;17.10;;;3.40;99.90;;;;;;5025759;28;20188;-66
2023/03/02 06:43:12;;;;;;;24.57;19.10;;;3.50;99.90;;;;;;5028758;28;20226;-66
2023/03/02 06:45:38;;;;;;;30.30;19.80;;;2.90;99.90;;;;;;5023411;28;20198;-67
2023/03/02 06:48:05;;;;;;;26.10;17.80;;;3.50;99.90;;;;;;5018158;28;20523;-66
2023/03/02 06:50:31;;;;;;;27.30;19.33;;;3.70;99.90;;;;;;5021334;28;20461;-65
2023/03/02 06:52:56;;;;;;;25.60;17.35;;;3.50;99.90;;;;;;5029554;28;20196;-63
2023/03/02 06:55:22;;;;;;;23.40;17.93;;;3.50;99.90;;;;;;5027223;28;20207;-64
2023/03/02 06:57:48;;;;;;;24.67;17.93;;;3.80;99.90;;;;;;5029107;28;20230;-67
2023/03/02 07:00:23;;;;;;;25.63;17.13;;;3.60;99.90;;;;;;5028213;28;20543;-65
2023/03/02 07:02:50;;;;;;;26.90;17.98;;;3.50;99.90;;;;;;5023785;28;20753;-64
2023/03/02 07:05:16;;;;;;;30.17;19.05;;;3.60;99.90;;;;;;5027383;28;20198;-64
2023/03/02 07:07:42;;;;;;;22.45;16.48;;;3.80;99.90;;;;;;5017735;28;20327;-66
2023/03/02 07:10:09;;;;;;;24.70;17.43;;;4.00;99.90;;;;;;5025376;28;20197;-66
2023/03/02 07:12:35;;;;;;;27.60;18.35;;;3.80;99.90;;;;;;5026074;28;20455;-66
2023/03/02 07:15:01;;;;;;;33.37;18.47;;;3.30;99.90;;;;;;5029488;28;20214;-66
2023/03/02 07:17:27;;;;;;;28.43;18.80;;;4.00;99.90;;;;;;5034581;28;20457;-64
2023/03/02 07:19:52;;;;;;;26.90;18.63;;;3.80;99.90;;;;;;5021130;28;20310;-65
2023/03/02 07:22:18;;;;;;;25.10;17.73;;;3.70;99.90;;;;;;5027158;28;20438;-64
2023/03/02 07:24:43;;;;;;;23.67;17.43;;;4.50;99.90;;;;;;5024973;28;20187;-64
2023/03/02 07:27:09;;;;;;;28.67;19.17;;;3.90;99.90;;;;;;5028807;28;20195;-64
2023/03/02 07:29:35;;;;;;;29.90;18.57;;;4.00;99.90;;;;;;5026268;28;20197;-65
2023/03/02 07:32:00;;;;;;;26.13;18.00;;;3.60;99.90;;;;;;5027030;28;20194;-64
2023/03/02 07:34:26;;;;;;;23.40;16.73;;;3.90;99.90;;;;;;5026099;28;20216;-64
2023/03/02 07:36:52;;;;;;;24.52;17.20;;;4.60;99.90;;;;;;5029150;28;20242;-64
2023/03/02 07:39:19;;;;;;;26.55;17.08;;;4.10;99.90;;;;;;5022548;28;20629;-64
2023/03/02 07:41:45;;;;;;;24.10;17.20;;;4.30;99.90;;;;;;5028545;28;20196;-64
2023/03/02 07:44:10;;;;;;;24.65;18.20;;;4.40;99.90;;;;;;5027655;28;20186;-65
2023/03/02 07:46:36;;;;;;;23.03;16.40;;;3.80;99.90;;;;;;5024610;28;20215;-65
2023/03/02 07:49:01;;;;;;;21.50;16.03;;;3.50;99.90;;;;;;5024670;28;20227;-66
2023/03/02 07:51:27;;;;;;;26.33;17.00;;;4.10;99.90;;;;;;5027269;28;20194;-65
2023/03/02 07:53:53;;;;;;;26.97;18.07;;;4.30;99.90;;;;;;5023774;28;20186;-65
2023/03/02 07:56:19;;;;;;;26.97;18.10;;;4.40;99.90;;;;;;5025892;28;20939;-65
2023/03/02 07:58:45;;;;;;;25.20;16.73;;;4.50;99.90;;;;;;5022886;28;20467;-66
2023/03/02 08:01:11;;;;;;;27.27;18.15;;;4.40;99.90;;;;;;5023706;28;20771;-66
2023/03/02 08:03:37;;;;;;;26.47;16.90;;;4.60;99.90;;;;;;5027475;28;20646;-65
2023/03/02 08:06:12;;;;;;;22.23;15.15;;;4.90;99.90;;;;;;5026379;28;20976;-64
2023/03/02 08:08:38;;;;;;;24.50;16.92;;;4.80;99.90;;;;;;5018481;28;20207;-64
2023/03/02 08:11:15;;;;;;;25.10;16.45;;;4.70;99.50;;;;;;5026673;28;20201;-65
2023/03/02 08:13:41;;;;;;;21.80;14.13;;;4.80;99.50;;;;;;5027582;28;20254;-64
2023/03/02 08:16:08;;;;;;;22.77;16.97;;;5.00;99.40;;;;;;5018449;28;20963;-64
2023/03/02 08:18:35;;;;;;;24.05;17.70;;;5.00;99.10;;;;;;5029010;28;20205;-64
2023/03/02 08:21:01;;;;;;;22.50;16.30;;;5.50;99.50;;;;;;5027481;28;20189;-64
2023/03/02 08:23:27;;;;;;;23.27;16.90;;;5.00;99.50;;;;;;5024230;28;20638;-64
2023/03/02 08:25:53;;;;;;;24.10;16.07;;;5.10;99.70;;;;;;5023459;28;20807;-65
2023/03/02 08:28:20;;;;;;;22.75;16.60;;;4.90;99.70;;;;;;5021533;28;20365;-65
2023/03/02 08:30:57;;;;;;;24.85;18.08;;;4.90;99.30;;;;;;5017987;28;20198;-64
2023/03/02 08:33:24;;;;;;;24.52;15.48;;;5.00;99.00;;;;;;5022551;28;20267;-66
2023/03/02 08:35:55;;;;;;;21.35;15.90;;;5.40;99.20;;;;;;5024324;28;20216;-67
2023/03/02 08:38:20;;;;;;;19.40;15.02;;;5.50;98.80;;;;;;5021295;28;20259;-66
2023/03/02 08:40:46;;;;;;;21.40;15.23;;;5.70;98.40;;;;;;5024950;28;20190;-66
2023/03/02 08:43:11;;;;;;;26.37;17.00;;;5.60;98.00;;;;;;5020196;28;20185;-67
2023/03/02 08:45:37;;;;;;;21.53;15.13;;;5.50;97.80;;;;;;5024884;28;20182;-68
2023/03/02 08:48:03;;;;;;;20.97;16.80;;;5.70;97.50;;;;;;5023786;28;20362;-68
2023/03/02 08:50:28;;;;;;;22.47;17.07;;;5.90;97.70;;;;;;5025727;28;20213;-68
2023/03/02 08:52:54;;;;;;;21.80;15.67;;;5.50;97.40;;;;;;5020276;28;20190;-66
2023/03/02 08:55:20;;;;;;;20.67;14.93;;;5.80;98.40;;;;;;5029134;28;20738;-66
2023/03/02 08:57:46;;;;;;;23.53;16.83;;;6.20;97.40;;;;;;5027605;28;20277;-66
2023/03/02 09:00:13;;;;;;;26.02;17.15;;;6.40;97.20;;;;;;5025053;28;20451;-67
2023/03/02 09:02:40;;;;;;;25.20;16.02;;;6.40;96.30;;;;;;5022694;28;20675;-67
2023/03/02 09:05:05;;;;;;;20.20;16.00;;;6.70;95.80;;;;;;5027622;28;20185;-67
2023/03/02 09:07:31;;;;;;;21.92;16.90;;;6.80;95.30;;;;;;5019344;28;20182;-68
2023/03/02 09:09:57;;;;;;;22.30;16.60;;;6.70;95.00;;;;;;5022730;28;20217;-65
2023/03/02 09:12:22;;;;;;;20.83;15.37;;;7.10;94.50;;;;;;5025497;28;20194;-66
2023/03/02 09:14:48;;;;;;;19.50;14.73;;;7.40;94.60;;;;;;5023433;28;20276;-67
2023/03/02 09:17:14;;;;;;;26.20;15.87;;;7.20;94.70;;;;;;5021692;28;20190;-66
2023/03/02 09:19:41;;;;;;;21.17;14.88;;;7.40;94.60;;;;;;5022643;28;20299;-67
2023/03/02 09:22:09;;;;;;;19.92;14.77;;;7.30;94.30;;;;;;5026812;28;20701;-66
2023/03/02 09:24:35;;;;;;;23.48;16.27;;;7.30;94.20;;;;;;5026385;28;20281;-66
2023/03/02 09:27:02;;;;;;;21.05;15.48;;;7.60;94.20;;;;;;5027429;28;20186;-67
2023/03/02 09:29:28;;;;;;;20.27;15.25;;;7.80;93.90;;;;;;5027711;28;20212;-67
2023/03/02 09:31:54;;;;;;;19.90;14.53;;;7.50;93.80;;;;;;5025311;28;20182;-67
2023/03/02 09:34:20;;;;;;;39.77;20.47;;;7.80;93.40;;;;;;5015543;28;20532;-64
2023/03/02 09:36:46;;;;;;;21.13;15.90;;;8.00;93.30;;;;;;5017702;28;20964;-66
2023/03/02 09:39:12;;;;;;;22.45;14.48;;;7.80;93.20;;;;;;5021968;28;20449;-66
2023/03/02 09:42:08;;;;;;;20.10;14.48;;;7.70;93.30;;;;;;5026107;28;20210;-65
2023/03/02 09:44:54;;;;;;;20.50;15.70;;;7.60;93.40;;;;;;5025016;28;20179;-65
2023/03/02 09:47:27;;;;;;;20.88;14.13;;;7.60;93.60;;;;;;5026205;28;20194;-66
2023/03/02 09:49:59;;;;;;;23.23;15.50;;;7.90;93.30;;;;;;5023366;28;20194;-65
2023/03/02 09:52:53;;;;;;;20.25;14.23;;;8.00;93.20;;;;;;5024516;28;20187;-65
2023/03/02 09:55:24;;;;;;;22.75;14.13;;;8.00;93.20;;;;;;5017274;28;20221;-66
2023/03/02 09:57:50;;;;;;;20.00;14.95;;;8.20;93.00;;;;;;5026542;28;20217;-65
2023/03/02 10:00:31;;;;;;;23.77;15.77;;;8.10;92.70;;;;;;5027744;28;20257;-65
2023/03/02 10:03:05;;;;;;;22.83;16.25;;;8.20;93.50;;;;;;5024739;28;20446;-66
2023/03/02 10:05:42;;;;;;;20.92;15.43;;;7.90;92.90;;;;;;5025810;28;20213;-66
2023/03/02 10:08:21;;;;;;;22.48;15.05;;;7.90;93.40;;;;;;5024573;28;20206;-66
2023/03/02 10:11:28;;;;;;;19.38;14.57;;;8.20;93.20;;;;;;5027166;28;20200;-66
2023/03/02 10:14:16;;;;;;;20.55;13.50;;;8.50;92.70;;;;;;5025186;28;20258;-65
2023/03/02 10:16:51;;;;;;;19.70;15.15;;;8.60;91.90;;;;;;5025712;28;20524;-65
2023/03/02 10:19:49;;;;;;;19.27;14.35;;;8.40;92.30;;;;;;5023536;28;20511;-65
2023/03/02 10:22:24;;;;;;;20.23;14.90;;;9.20;92.30;;;;;;5028846;28;20209;-66
2023/03/02 10:25:04;;;;;;;22.73;16.45;;;10.00;90.50;;;;;;5025403;28;20203;-66
2023/03/02 10:27:40;;;;;;;19.30;14.57;;;10.80;88.20;;;;;;5031196;28;20199;-66
2023/03/02 10:30:17;;;;;;;18.88;15.77;;;11.30;83.10;;;;;;5027980;28;20554;-65
2023/03/02 10:32:47;;;;;;;19.65;14.75;;;10.80;82.90;;;;;;5030967;28;20559;-65
2023/03/02 10:35:19;;;;;;;18.60;14.52;;;10.30;85.40;;;;;;5031450;28;20216;-65
2023/03/02 10:37:46;;;;;;;22.90;15.70;;;10.10;86.90;;;;;;5025712;28;20665;-65
2023/03/02 10:40:37;;;;;;;17.27;13.38;;;10.00;87.20;;;;;;5027995;28;20259;-65
2023/03/02 10:43:04;;;;;;;19.95;14.85;;;10.30;86.40;;;;;;5029765;28;20653;-65
2023/03/02 10:45:31;;;;;;;23.63;14.82;;;10.00;86.30;;;;;;5030350;28;20278;-65
2023/03/02 10:48:08;;;;;;;20.25;14.52;;;10.00;86.70;;;;;;5029193;28;20568;-65
2023/03/02 10:50:34;;;;;;;18.27;15.02;;;10.00;87.30;;;;;;5030124;28;20184;-65
2023/03/02 10:53:00;;;;;;;21.08;14.73;;;10.10;86.70;;;;;;5030099;28;20236;-65
2023/03/02 10:55:26;;;;;;;20.48;15.70;;;10.10;87.10;;;;;;5027142;28;20645;-65
2023/03/02 10:58:04;;;;;;;20.98;16.17;;;9.50;89.20;;;;;;5028108;28;20292;-65
2023/03/02 11:00:32;;;;;;;21.33;15.75;;;9.30;89.90;;;;;;5028249;28;20294;-65
2023/03/02 11:03:00;;;;;;;22.63;16.65;;;9.60;90.20;;;;;;5028842;28;20188;-65
2023/03/02 11:05:34;;;;;;;23.70;15.48;;;9.40;90.00;;;;;;5030136;28;20238;-66
2023/03/02 11:08:01;;;;;;;21.50;16.92;;;11.00;86.60;;;;;;5025158;28;20210;-65
2023/03/02 11:10:35;;;;;;;18.70;14.40;;;11.00;84.20;;;;;;5027842;28;20235;-65
2023/03/02 11:13:05;;;;;;;18.80;15.05;;;10.80;84.70;;;;;;5029794;28;20706;-64
2023/03/02 11:15:30;;;;;;;25.23;16.15;;;10.60;86.20;;;;;;5028224;28;20216;-65
2023/03/02 11:18:20;;;;;;;26.60;19.90;;;10.80;84.10;;;;;;5028054;28;20300;-65
2023/03/02 11:20:51;;;;;;;22.27;15.82;;;11.10;83.80;;;;;;5029811;28;20191;-65
2023/03/02 11:23:25;;;;;;;24.23;16.05;;;11.10;82.70;;;;;;5024295;28;20190;-66
2023/03/02 11:25:58;;;;;;;19.35;15.93;;;11.80;82.30;;;;;;5025999;28;20220;-65
2023/03/02 11:28:36;;;;;;;19.88;16.15;;;11.90;81.00;;;;;;5029656;28;20292;-66
2023/03/02 11:31:06;;;;;;;16.80;14.30;;;12.90;79.00;;;;;;5028218;28;20230;-65
2023/03/02 11:33:43;;;;;;;19.45;14.95;;;13.50;77.10;;;;;;5025013;28;20210;-65
2023/03/02 11:36:17;;;;;;;22.20;16.17;;;14.00;74.40;;;;;;5028229;28;20558;-65
2023/03/02 11:38:54;;;;;;;20.15;16.45;;;13.10;73.70;;;;;;5026899;28;20268;-65
2023/03/02 11:41:32;;;;;;;22.13;15.93;;;12.30;76.30;;;;;;5028574;28;20178;-65
2023/03/02 11:44:16;;;;;;;20.63;15.82;;;11.70;78.00;;;;;;5028438;28;20247;-65
2023/03/02 11:46:45;;;;;;;21.20;15.15;;;11.80;79.90;;;;;;5023744;28;20214;-66
2023/03/02 11:49:20;;;;;;;20.23;15.43;;;12.10;78.80;;;;;;5028386;28;20202;-66
2023/03/02 11:51:58;;;;;;;20.33;16.05;;;12.20;78.00;;;;;;5025581;28;20228;-66
2023/03/02 11:54:44;;;;;;;21.98;17.17;;;13.10;77.50;;;;;;5013865;28;20588;-68
2023/03/02 11:57:39;;;;;;;19.23;15.45;;;12.70;76.80;;;;;;5023679;28;20182;-68
2023/03/02 12:00:32;;;;;;;22.13;15.43;;;12.40;76.90;;;;;;5025693;28;20179;-67
2023/03/02 12:03:19;;;;;;;21.95;16.05;;;12.00;77.30;;;;;;5029488;28;20198;-67
2023/03/02 12:05:58;;;;;;;17.60;14.95;;;11.60;78.70;;;;;;5028393;28;20247;-67
2023/03/02 12:08:23;;;;;;;21.50;15.45;;;11.50;79.40;;;;;;5025672;28;20325;-67
2023/03/02 12:10:57;;;;;;;22.10;14.50;;;12.10;79.70;;;;;;5026278;28;20344;-67
2023/03/02 12:13:38;;;;;;;22.08;15.27;;;11.90;79.90;;;;;;5018961;28;20189;-67
2023/03/02 12:16:36;;;;;;;22.55;15.75;;;11.60;80.40;;;;;;5021260;28;20320;-64
2023/03/02 12:19:23;;;;;;;19.65;15.38;;;11.20;81.20;;;;;;5025697;28;20234;-66
2023/03/02 12:22:05;;;;;;;19.90;13.48;;;11.50;82.30;;;;;;5027661;28;20186;-66
2023/03/02 12:24:34;;;;;;;19.40;14.95;;;11.70;80.70;;;;;;5020837;28;20271;-65
2023/03/02 12:27:03;;;;;;;18.27;14.77;;;11.90;81.10;;;;;;5027893;28;20205;-68
2023/03/02 12:29:47;;;;;;;20.60;14.73;;;11.40;80.70;;;;;;5030054;28;20210;-67
2023/03/02 12:32:23;;;;;;;18.05;15.88;;;11.50;81.80;;;;;;5025501;28;20639;-67
2023/03/02 12:35:07;;;;;;;20.52;15.38;;;11.60;81.80;;;;;;5028427;28;20221;-68
2023/03/02 12:38:14;;;;;;;17.13;14.50;;;11.60;81.70;;;;;;5026941;28;20189;-68
2023/03/02 12:41:03;;;;;;;24.35;16.05;;;11.40;82.00;;;;;;5000127;28;20190;-68
2023/03/02 12:43:36;;;;;;;17.45;14.50;;;11.40;82.50;;;;;;5024839;28;20192;-67
2023/03/02 12:46:31;;;;;;;22.90;16.20;;;11.50;82.80;;;;;;5023100;28;20210;-66
2023/03/02 12:49:23;;;;;;;20.23;15.60;;;11.50;82.30;;;;;;5025218;28;20337;-67